Flight Track Log - Related Links

Times and Time Zones

All times are in EDT time to prevent confusion due to time zone crossing. See the ASQ5958 flight status page for this flight to view local times or setup timezone preferences in your user account.

Time Position Orientation Groundspeed Altitude Reporting Facility
EDT Latitude Longitude Course Direction KTS MPH feet Rate Location/Type
Mon 10:54:40 AM 39.8333 -104.8167 211° Southwest 204 235 7,900  Level Denver TRACON
Mon 10:55:40 AM 39.8000 -104.8833 237° Southwest 263 303 9,600 1,915 Climbing Denver TRACON
Mon 10:56:14 AM 39.7556 -104.9161 210° Southwest 270 311 10,900 1,750 Climbing Denver Center
Mon 10:57:16 AM 39.6767 -104.9269 186° South 291 335 12,400 1,500 Climbing Denver Center
Mon 10:58:18 AM 39.5850 -104.8797 158° South 339 390 14,000 1,790 Climbing Denver Center
Mon 10:59:00 AM 39.4568 -104.1723 161° South  Level Estimated
Mon 10:59:20 AM 39.4942 -104.8394 161° South 352 405 16,100  Level Denver Center
Mon 11:00:00 AM 39.3609 -104.2466 211° Southwest  Level FlightAware Approximate
Mon 11:00:22 AM 39.3947 -104.8239 173° South 342 394 18,200  Level Denver Center
Mon 11:01:24 AM 39.2989 -104.8008 169° South 350 403 19,900 1,577 Climbing Denver Center
Mon 11:02:39 AM 39.1797 -104.7708 169° South 357 411 21,800 1,489 Climbing Denver Center
Mon 11:03:41 AM 39.0744 -104.7447 169° South 356 410 23,300 1,355 Climbing Denver Center
Mon 11:04:43 AM 38.9775 -104.7078 163° South 356 410 24,600 1,210 Climbing Denver Center
Mon 11:05:45 AM 38.8758 -104.6664 162° South 377 434 25,800 1,161 Climbing Denver Center
Mon 11:06:47 AM 38.7769 -104.6239 161° South 373 429 27,000 1,210 Climbing Denver Center
Mon 11:07:49 AM 38.6772 -104.5839 163° South 373 429 28,300 1,306 Climbing Denver Center
Mon 11:08:51 AM 38.5794 -104.5439 162° South 367 422 29,700 1,355 Climbing Denver Center
Mon 11:09:53 AM 38.4825 -104.5019 161° South 364 419 31,100 1,452 Climbing Denver Center
Mon 11:10:55 AM 38.3700 -104.4575 163° South 361 415 32,700 1,452 Climbing Denver Center
Mon 11:11:57 AM 38.2747 -104.4128 160° South 357 411 34,100 1,113 Climbing Denver Center
Mon 11:12:59 AM 38.1933 -104.3464 147° Southeast 361 415 35,000 435 Climbing Denver Center
Mon 11:14:01 AM 38.0989 -104.2522 142° Southeast 389 448 35,000  Level Denver Center
Mon 11:15:03 AM 38.0206 -104.1497 134° Southeast 421 484 35,000  Level Denver Center
Mon 11:16:05 AM 37.9394 -104.0433 134° Southeast 434 499 35,000 48 Level Denver Center
Mon 11:17:07 AM 37.8394 -103.9139 134° Southeast 454 522 35,100 484 Climbing Denver Center
Mon 11:18:09 AM 37.7561 -103.8047 134° Southeast 447 514 36,000 435 Climbing Denver Center
Mon 11:19:11 AM 37.6575 -103.6778 134° Southeast 450 518 36,000  Level Denver Center
Mon 11:20:13 AM 37.5767 -103.5578 130° Southeast 464 534 36,000  Level Denver Center
Mon 11:21:15 AM 37.4842 -103.4147 129° Southeast 468 539 36,000  Level Denver Center
Mon 11:22:17 AM 37.4042 -103.2919 129° Southeast 471 542 36,000  Level Denver Center
Mon 11:23:20 AM 37.3256 -103.1708 129° Southeast 466 536 36,000  Level Denver Center
Mon 11:24:22 AM 37.2328 -103.0308 130° Southeast 466 536 36,000  Level Denver Center
Mon 11:24:37 AM 37.2200 -103.0108 129° Southeast 466 536 36,000  Level Albuquerque Center
Mon 11:25:39 AM 37.1264 -102.8708 130° Southeast 468 539 36,000  Level Albuquerque Center
Mon 11:26:41 AM 37.0486 -102.7492 129° Southeast 467 537 36,000  Level Albuquerque Center
Mon 11:27:43 AM 36.9561 -102.6094 130° Southeast 466 536 36,000 339 Level Albuquerque Center
Mon 11:28:45 AM 36.8744 -102.4881 130° Southeast 463 533 36,700 484 Climbing Albuquerque Center
Mon 11:29:47 AM 36.7958 -102.3689 129° Southeast 452 520 37,000 145 Climbing Albuquerque Center
Mon 11:30:49 AM 36.7150 -102.2517 131° Southeast 446 513 37,000  Level Albuquerque Center
Mon 11:31:51 AM 36.6211 -102.1106 130° Southeast 449 517 37,000  Level Albuquerque Center
Mon 11:32:53 AM 36.5381 -101.9878 130° Southeast 451 519 37,000  Level Albuquerque Center
Mon 11:33:55 AM 36.4567 -101.8675 130° Southeast 454 522 37,000  Level Albuquerque Center
Mon 11:34:57 AM 36.3733 -101.7478 131° Southeast 455 524 37,000  Level Albuquerque Center
Mon 11:35:59 AM 36.2903 -101.6258 130° Southeast 461 531 37,000  Level Albuquerque Center
Mon 11:37:01 AM 36.2072 -101.5042 130° Southeast 461 531 37,000  Level Albuquerque Center
Mon 11:38:03 AM 36.1236 -101.3833 131° Southeast 462 532 37,000  Level Albuquerque Center
Mon 11:39:05 AM 36.0219 -101.2353 130° Southeast 466 536 37,000  Level Albuquerque Center
Mon 11:40:07 AM 35.9378 -101.1136 130° Southeast 465 535 37,000  Level Albuquerque Center
Mon 11:41:09 AM 35.8547 -100.9925 130° Southeast 462 532 37,000  Level Albuquerque Center
Mon 11:42:11 AM 35.7783 -100.8833 131° Southeast 465 535 37,000  Level Albuquerque Center
Mon 11:43:13 AM 35.6872 -100.7519 130° Southeast 460 529 37,000  Level Albuquerque Center
Mon 11:44:15 AM 35.5956 -100.6219 131° Southeast 460 529 37,000  Level Albuquerque Center
Mon 11:45:17 AM 35.5117 -100.5017 131° Southeast 462 532 37,000  Level Albuquerque Center
Mon 11:46:19 AM 35.4264 -100.3825 131° Southeast 464 534 37,000  Level Albuquerque Center
Mon 11:47:21 AM 35.3408 -100.2633 131° Southeast 464 534 37,000  Level Albuquerque Center
Mon 11:48:23 AM 35.2569 -100.1461 131° Southeast 462 532 37,000  Level Albuquerque Center
Mon 11:49:25 AM 35.1561 -100.0061 131° Southeast 459 528 37,000  Level Albuquerque Center
Mon 11:50:27 AM 35.0733 -99.8900 131° Southeast 456 525 37,000  Level Albuquerque Center
Mon 11:51:29 AM 34.9881 -99.7719 131° Southeast 460 529 37,000  Level Albuquerque Center
Mon 11:52:31 AM 34.9028 -99.6550 132° Southeast 462 532 37,000  Level Albuquerque Center
Mon 11:52:56 AM 34.8675 -99.6050 131° Southeast 455 524 37,000  Level Fort Worth Center
Mon 11:53:56 AM 34.7819 -99.4917 133° Southeast 455 524 37,000 -101 Level Fort Worth Center
Mon 11:54:55 AM 34.6942 -99.3708 131° Southeast 455 524 36,800 -1,100 Descending Fort Worth Center
Mon 11:55:56 AM 34.6083 -99.2528 131° Southeast 460 529 34,800 -2,000 Descending Fort Worth Center
Mon 11:56:55 AM 34.5117 -99.1525 139° Southeast 460 529 32,800 -1,850 Descending Fort Worth Center
Mon 11:57:56 AM 34.3933 -99.1222 168° South 430 495 31,100 -893 Descending Fort Worth Center
Mon 11:58:56 AM 34.2744 -99.1025 172° South 415 478 31,000 -550 Descending Fort Worth Center
Mon 11:59:56 AM 34.1642 -99.0828 172° South 422 486 30,000 -1,600 Descending Fort Worth Center
Mon 12:00:56 PM 34.0414 -99.0528 169° South 416 479 27,800 -2,000 Descending Fort Worth Center
Mon 12:01:56 PM 33.9375 -99.0333 171° South 404 465 26,000 -1,750 Descending Fort Worth Center
Mon 12:02:56 PM 33.8486 -98.9542 144° Southeast 375 432 24,300 -1,000 Descending Fort Worth Center
Mon 12:03:56 PM 33.8586 -98.8092 85° East 341 392 24,000 -150 Descending Fort Worth Center
Mon 12:04:56 PM 33.8078 -98.7033 120° Southeast 377 434 24,000  Level Fort Worth Center
Mon 12:05:56 PM 33.7631 -98.5728 112° Southeast 411 473 24,000 -50 Level Fort Worth Center
Mon 12:06:56 PM 33.7183 -98.4272 110° East 425 489 23,900 -1,333 Descending Fort Worth Center
Mon 12:08:56 PM 33.6450 -98.1794 110° East 404 465 20,000 -2,078 Descending Fort Worth Center
Mon 12:09:55 PM 33.6122 -98.0719 110° East 355 409 17,700 -2,200 Descending Fort Worth Center
Mon 12:10:56 PM 33.5794 -97.9644 110° East 338 389 15,600 -1,884 Descending Fort Worth Center
Mon 12:11:56 PM 33.5422 -97.8694 115° Southeast 344 396 13,900 -1,815 Descending Fort Worth Center
Mon 12:12:55 PM 33.4800 -97.7794 130° Southeast 334 384 12,000 -1,650 Descending Fort Worth Center
Mon 12:13:56 PM 33.4319 -97.7097 130° Southeast 312 359 10,600 -1,636 Descending Fort Worth Center
Mon 12:14:56 PM 33.3717 -97.6325 133° Southeast 291 335 8,700 -1,850 Descending Fort Worth Center
Mon 12:15:56 PM 33.3197 -97.5600 131° Southeast 291 335 6,900 -1,600 Descending Fort Worth Center
Mon 12:16:56 PM 33.2739 -97.5003 133° Southeast 286 329 5,500 -950 Descending Fort Worth Center
Mon 12:17:56 PM 33.2236 -97.4333 132° Southeast 256 295 5,000 -250 Descending Fort Worth Center
Mon 12:18:56 PM 33.2342 -97.3664 79° East 213 245 5,000  Level Fort Worth Center
Mon 12:19:56 PM 33.2508 -97.2817 77° East 231 266 5,000 -200 Level Fort Worth Center
Mon 12:20:56 PM 33.2506 -97.2022 90° East 237 273 4,600 -650 Descending Fort Worth Center
Mon 12:21:56 PM 33.2297 -97.1328 110° East 218 251 3,700 -750 Descending Fort Worth Center
Mon 12:22:56 PM 33.1878 -97.0908 140° Southeast 204 235 3,100 -350 Descending Fort Worth Center
Mon 12:23:56 PM 33.1397 -97.0661 157° South 204 235 3,000 -100 Descending Fort Worth Center
Mon 12:24:56 PM 33.0814 -97.0564 172° South 199 229 2,900 -56 Descending Fort Worth Center
Mon 12:25:43 PM 33.0333 -97.0500 174° South 193 222 2,900 -475 Level Dallas / Fort Worth TRACON
Mon 12:26:37 PM 33.0000 -97.0500 180° South 161 185 2,100 -835 Descending Dallas / Fort Worth TRACON
Mon 12:27:38 PM 32.9500 -97.0500 180° South 154 177 1,300 -787 Descending Dallas / Fort Worth TRACON
Mon 12:29:00 PM 32.8968 -97.0380 140° Southeast  Level Estimated
Mon 12:36:00 PM 32.8968 -97.0380 140° Southeast  Level Estimated
Mon 12:37:00 PM 32.8968 -97.0380 140° Southeast  Level Estimated

Login

Don't have an account? Register now (free) for customized features, flight alerts, and more!